Portada
METAR-TAF:

METAR-TAF

Aeroports :

Madurai, Índia

latitud: 09-50-01N, longitud: 078-05-22E, altitud: 136 m

Observació

L'informe es va fer fa 30 minuts, a les 07:30 UTC
Vent 3 kt amb direcció variable
Temperatura 36°C
Humitat 42%
Pressió 1007 hPa
Visibilitat: 6000 m
Escasses núvols a una alçada de 2000 ft
Núvols disperses a una alçada de 10000 ft

METAR: VOMD 220730Z VRB03KT 6000 FEW020 SCT100 36/21 Q1007 NOSIG

Hora: 13:30 (08:00 UTC)

Pronòstic

L'informe es va fer fa 3 hores i 0 minuts, a les 05:00 UTC
Pronòstic vàlid del 22 a les 06 UTC al 23 a les 12 UTC
Vent 5 kt del Oest/Nord-Oest
Visibilitat: 6000 m
Escasses núvols a una alçada de 2000 ft
Núvols disperses a una alçada de 10000 ft

TAF: VOMD 220500Z 2206/2312 29005KT 6000 FEW020 SCT100

Observacions i pronòstics meteorològics de més de 4000 aeroports (METAR i TAF).

Les estacions disponibles són els punts grocs i vermells al mapa.

Posi el ratolí al punt desitjat per veure el nom de l'estació.

Feu clic per veure les observacions i els pronòstics meteorològics.

Per canviar el mapa: feu clic els botons verds amb una creu de color negre per apropar; al botó verd amb un guió per allunyar la imatge; o en les fletxes verdes per a mapes adjacents.


METAR-TAF: